Frontier Oasis — 3FLC2 — position and weather

sailwx.info

Track history (hours):
 
Tides and Currents Weather Stations Pressure Air Temp Water Temp Dewpoint Dewpoint Depression Visibility Wind Speed Wind Dir Waves Ship Positions

Frontier Oasis

Last reported at 2014-Aug-01 05:19 UTC. Time now 2014-Aug-21 22:04 UTC.
Position N 37°16' E 123°50'.
Warning: this ship's position is 20 days out of date.

Length 292 m; draft 14.2 m.

Type: Cargo ship. MMSI: 371910000.

Date/timePositionNaut miles runAvg speedWind from/ knotsBaromVisibWave heightAir tempDewpointWater temp
2014-Aug-01 05:19N 37°16' E 123°50'1314.4
2014-Aug-01 04:23N 37°23' E 123°36'1214.0
2014-Aug-01 03:33N 37°29' E 123°23'1713.4
2014-Aug-01 02:15N 37°37' E 123°04'1513.0
2014-Aug-01 01:07N 37°44' E 122°47'713.1
2014-Aug-01 00:33N 37°48' E 122°39'1413.1
2014-Jul-31 23:29N 37°54' E 122°24'1313.3
2014-Jul-31 22:32N 38°00' E 122°09'4113.8
2014-Jul-31 19:33N 38°21' E 121°24'12813.9
2014-Jul-31 10:21N 38°47' E 118°44'911.7
2014-Jul-31 09:33N 38°49' E 118°32'11 0.3
2014-Jul-29 14:10N 38°60' E 118°27'0 0.0
2014-Jul-29 13:32N 38°60' E 118°27'0 0.0
2014-Jul-29 12:32N 38°60' E 118°27'0 0.0
2014-Jul-29 11:32N 38°60' E 118°27'0 0.0
2014-Jul-29 10:32N 38°60' E 118°27'0 0.0
2014-Jul-29 06:25N 38°60' E 118°27'9 1.5
2014-Jul-29 00:33N 38°53' E 118°35'3 3.3
2014-Jul-28 23:32N 38°51' E 118°39'0 0.1
2014-Jul-28 22:31N 38°51' E 118°39'0 0.1
2014-Jul-28 20:19N 38°51' E 118°38'0 0.1
2014-Jul-28 19:13N 38°51' E 118°38'0 0.0
2014-Jul-28 16:19N 38°51' E 118°38'0 0.2
2014-Jul-28 15:04N 38°51' E 118°39'0 0.1
2014-Jul-28 14:31N 38°51' E 118°39'0 0.0
2014-Jul-28 13:31N 38°51' E 118°39'0 0.0
2014-Jul-28 12:28N 38°51' E 118°39'0 0.0
2014-Jul-28 00:23N 38°51' E 118°39'0 0.0
2014-Jul-27 23:33N 38°51' E 118°39'0 0.0
2014-Jul-27 22:33N 38°51' E 118°39'0 0.0
2014-Jul-27 21:33N 38°51' E 118°39'0 0.2
2014-Jul-27 20:33N 38°51' E 118°39'0 0.1
2014-Jul-27 19:34N 38°51' E 118°38'0 0.1
2014-Jul-27 18:33N 38°51' E 118°38'0 0.0
2014-Jul-27 17:33N 38°51' E 118°38'0 0.0
2014-Jul-27 16:34N 38°51' E 118°38'0 0.1
2014-Jul-27 15:08N 38°51' E 118°38'0 0.0
2014-Jul-27 06:28N 38°51' E 118°38'0 0.0
2014-Jul-26 22:29N 38°51' E 118°39'0 0.0
2014-Jul-26 21:33N 38°51' E 118°39'0 0.0
2014-Jul-26 20:34N 38°51' E 118°39'0 0.2
2014-Jul-26 19:33N 38°51' E 118°38'0 0.1
2014-Jul-26 18:34N 38°51' E 118°38'0 0.0
2014-Jul-26 17:34N 38°51' E 118°38'0 0.0
2014-Jul-26 16:33N 38°51' E 118°38'0 0.0
2014-Jul-26 15:33N 38°51' E 118°38'0 0.3
2014-Jul-26 14:34N 38°51' E 118°39'0 0.0
2014-Jul-26 12:34N 38°51' E 118°39'0 0.0
2014-Jul-26 09:33N 38°51' E 118°39'0 0.1
2014-Jul-26 08:33N 38°51' E 118°39'0 0.2
2014-Jul-26 07:22N 38°51' E 118°38'0 0.1
2014-Jul-26 06:30N 38°51' E 118°38'1 0.1
2014-Jul-25 20:23N 38°50' E 118°40'8 6.2
2014-Jul-25 19:07N 38°49' E 118°50'12911.9
2014-Jul-25 08:17N 38°22' E 121°31'3813.0
2014-Jul-25 05:22N 38°04' E 122°14'205 7.4
2014-Jul-24 01:29N 35°09' E 120°01'1213.1
2014-Jul-24 00:33N 35°04' E 119°47'10 9.8
2014-Jul-23 23:33N 35°03' E 119°35'1010.0
2014-Jul-23 22:33N 35°04' E 119°23'1 1.1
2014-Jul-23 21:25N 35°05' E 119°22'0 0.0
2014-Jul-23 20:31N 35°05' E 119°22'0 0.0
2014-Jul-23 19:25N 35°05' E 119°22'0 0.0
2014-Jul-23 18:25N 35°05' E 119°22'0 0.0
2014-Jul-23 17:31N 35°05' E 119°22'0 0.0
2014-Jul-23 16:31N 35°05' E 119°22'0 0.2
2014-Jul-23 15:31N 35°05' E 119°22'0 0.2
2014-Jul-23 14:31N 35°05' E 119°22'0 0.0
2014-Jul-23 13:31N 35°05' E 119°22'0 0.0
2014-Jul-23 12:31N 35°05' E 119°22'0 0.0
2014-Jul-23 11:31N 35°05' E 119°22'0 0.0
2014-Jul-23 10:31N 35°05' E 119°22'0 0.0
2014-Jul-23 09:31N 35°05' E 119°22'0 0.0
2014-Jul-23 08:19N 35°05' E 119°22'0 0.0
2014-Jul-23 07:31N 35°05' E 119°22'0 0.0
2014-Jul-23 06:31N 35°05' E 119°22'0 0.0
2014-Jul-23 05:31N 35°05' E 119°22'0 0.0
2014-Jul-23 04:31N 35°05' E 119°22'0 0.0
2014-Jul-23 03:25N 35°05' E 119°22'0 0.0
2014-Jul-23 02:20N 35°05' E 119°22'0 0.0
2014-Jul-23 01:26N 35°05' E 119°22'0 0.0
2014-Jul-23 00:32N 35°05' E 119°22'0 0.0
2014-Jul-22 23:32N 35°05' E 119°22'0 0.0
2014-Jul-22 22:20N 35°05' E 119°22'0 0.0
2014-Jul-22 21:20N 35°05' E 119°22'0 0.0
2014-Jul-22 20:32N 35°05' E 119°22'0 0.0
2014-Jul-22 19:20N 35°05' E 119°22'0 0.0
2014-Jul-22 18:32N 35°05' E 119°22'0 0.0
2014-Jul-22 17:32N 35°05' E 119°22'0 0.0
2014-Jul-22 16:25N 35°05' E 119°22'0 0.0
2014-Jul-22 15:31N 35°05' E 119°22'0 0.0
2014-Jul-22 14:32N 35°05' E 119°22'0 0.0
2014-Jul-22 13:31N 35°05' E 119°22'0 0.0
2014-Jul-22 12:32N 35°05' E 119°22'0 0.0
2014-Jul-22 11:07N 35°05' E 119°22'0 0.0
2014-Jul-22 10:31N 35°05' E 119°22'0 0.0
2014-Jul-22 09:31N 35°05' E 119°22'0 0.0
2014-Jul-22 08:25N 35°05' E 119°22'0 0.1
2014-Jul-22 07:33N 35°05' E 119°22'4 4.2
2014-Jul-22 06:30N 35°03' E 119°27'8 8.5
2014-Jul-22 05:34N 35°04' E 119°37'  
Track history (hours):
 
Tides and Currents Weather Stations Pressure Air Temp Water Temp Dewpoint Dewpoint Depression Visibility Wind Speed Wind Dir Waves Ship Positions

Frontier Oasis

Last reported at 2014-Aug-01 05:19 UTC. Time now 2014-Aug-21 22:04 UTC.
Position N 37°16' E 123°50'.
Warning: this ship's position is 20 days out of date.

Length 292 m; draft 14.2 m.

Type: Cargo ship. MMSI: 371910000.

Date/timePositionNaut miles runAvg speedWind from/ knotsBaromVisibWave heightAir tempDewpointWater temp
2014-Aug-01 05:19N 37°16' E 123°50'1314.4
2014-Aug-01 04:23N 37°23' E 123°36'1214.0
2014-Aug-01 03:33N 37°29' E 123°23'1713.4
2014-Aug-01 02:15N 37°37' E 123°04'1513.0
2014-Aug-01 01:07N 37°44' E 122°47'713.1
2014-Aug-01 00:33N 37°48' E 122°39'1413.1
2014-Jul-31 23:29N 37°54' E 122°24'1313.3
2014-Jul-31 22:32N 38°00' E 122°09'4113.8
2014-Jul-31 19:33N 38°21' E 121°24'12813.9
2014-Jul-31 10:21N 38°47' E 118°44'911.7
2014-Jul-31 09:33N 38°49' E 118°32'11 0.3
2014-Jul-29 14:10N 38°60' E 118°27'0 0.0
2014-Jul-29 13:32N 38°60' E 118°27'0 0.0
2014-Jul-29 12:32N 38°60' E 118°27'0 0.0
2014-Jul-29 11:32N 38°60' E 118°27'0 0.0
2014-Jul-29 10:32N 38°60' E 118°27'0 0.0
2014-Jul-29 06:25N 38°60' E 118°27'9 1.5
2014-Jul-29 00:33N 38°53' E 118°35'3 3.3
2014-Jul-28 23:32N 38°51' E 118°39'0 0.1
2014-Jul-28 22:31N 38°51' E 118°39'0 0.1
2014-Jul-28 20:19N 38°51' E 118°38'0 0.1
2014-Jul-28 19:13N 38°51' E 118°38'0 0.0
2014-Jul-28 16:19N 38°51' E 118°38'0 0.2
2014-Jul-28 15:04N 38°51' E 118°39'0 0.1
2014-Jul-28 14:31N 38°51' E 118°39'0 0.0
2014-Jul-28 13:31N 38°51' E 118°39'0 0.0
2014-Jul-28 12:28N 38°51' E 118°39'0 0.0
2014-Jul-28 00:23N 38°51' E 118°39'0 0.0
2014-Jul-27 23:33N 38°51' E 118°39'0 0.0
2014-Jul-27 22:33N 38°51' E 118°39'0 0.0
2014-Jul-27 21:33N 38°51' E 118°39'0 0.2
2014-Jul-27 20:33N 38°51' E 118°39'0 0.1
2014-Jul-27 19:34N 38°51' E 118°38'0 0.1
2014-Jul-27 18:33N 38°51' E 118°38'0 0.0
2014-Jul-27 17:33N 38°51' E 118°38'0 0.0
2014-Jul-27 16:34N 38°51' E 118°38'0 0.1
2014-Jul-27 15:08N 38°51' E 118°38'0 0.0
2014-Jul-27 06:28N 38°51' E 118°38'0 0.0
2014-Jul-26 22:29N 38°51' E 118°39'0 0.0
2014-Jul-26 21:33N 38°51' E 118°39'0 0.0
2014-Jul-26 20:34N 38°51' E 118°39'0 0.2
2014-Jul-26 19:33N 38°51' E 118°38'0 0.1
2014-Jul-26 18:34N 38°51' E 118°38'0 0.0
2014-Jul-26 17:34N 38°51' E 118°38'0 0.0
2014-Jul-26 16:33N 38°51' E 118°38'0 0.0
2014-Jul-26 15:33N 38°51' E 118°38'0 0.3
2014-Jul-26 14:34N 38°51' E 118°39'0 0.0
2014-Jul-26 12:34N 38°51' E 118°39'0 0.0
2014-Jul-26 09:33N 38°51' E 118°39'0 0.1
2014-Jul-26 08:33N 38°51' E 118°39'0 0.2
2014-Jul-26 07:22N 38°51' E 118°38'0 0.1
2014-Jul-26 06:30N 38°51' E 118°38'1 0.1
2014-Jul-25 20:23N 38°50' E 118°40'8 6.2
2014-Jul-25 19:07N 38°49' E 118°50'12911.9
2014-Jul-25 08:17N 38°22' E 121°31'3813.0
2014-Jul-25 05:22N 38°04' E 122°14'205 7.4
2014-Jul-24 01:29N 35°09' E 120°01'1213.1
2014-Jul-24 00:33N 35°04' E 119°47'10 9.8
2014-Jul-23 23:33N 35°03' E 119°35'1010.0
2014-Jul-23 22:33N 35°04' E 119°23'1 1.1
2014-Jul-23 21:25N 35°05' E 119°22'0 0.0
2014-Jul-23 20:31N 35°05' E 119°22'0 0.0
2014-Jul-23 19:25N 35°05' E 119°22'0 0.0
2014-Jul-23 18:25N 35°05' E 119°22'0 0.0
2014-Jul-23 17:31N 35°05' E 119°22'0 0.0
2014-Jul-23 16:31N 35°05' E 119°22'0 0.2
2014-Jul-23 15:31N 35°05' E 119°22'0 0.2
2014-Jul-23 14:31N 35°05' E 119°22'0 0.0
2014-Jul-23 13:31N 35°05' E 119°22'0 0.0
2014-Jul-23 12:31N 35°05' E 119°22'0 0.0
2014-Jul-23 11:31N 35°05' E 119°22'0 0.0
2014-Jul-23 10:31N 35°05' E 119°22'0 0.0
2014-Jul-23 09:31N 35°05' E 119°22'0 0.0
2014-Jul-23 08:19N 35°05' E 119°22'0 0.0
2014-Jul-23 07:31N 35°05' E 119°22'0 0.0
2014-Jul-23 06:31N 35°05' E 119°22'0 0.0
2014-Jul-23 05:31N 35°05' E 119°22'0 0.0
2014-Jul-23 04:31N 35°05' E 119°22'0 0.0
2014-Jul-23 03:25N 35°05' E 119°22'0 0.0
2014-Jul-23 02:20N 35°05' E 119°22'0 0.0
2014-Jul-23 01:26N 35°05' E 119°22'0 0.0
2014-Jul-23 00:32N 35°05' E 119°22'0 0.0
2014-Jul-22 23:32N 35°05' E 119°22'0 0.0
2014-Jul-22 22:20N 35°05' E 119°22'0 0.0
2014-Jul-22 21:20N 35°05' E 119°22'0 0.0
2014-Jul-22 20:32N 35°05' E 119°22'0 0.0
2014-Jul-22 19:20N 35°05' E 119°22'0 0.0
2014-Jul-22 18:32N 35°05' E 119°22'0 0.0
2014-Jul-22 17:32N 35°05' E 119°22'0 0.0
2014-Jul-22 16:25N 35°05' E 119°22'0 0.0
2014-Jul-22 15:31N 35°05' E 119°22'0 0.0
2014-Jul-22 14:32N 35°05' E 119°22'0 0.0
2014-Jul-22 13:31N 35°05' E 119°22'0 0.0
2014-Jul-22 12:32N 35°05' E 119°22'0 0.0
2014-Jul-22 11:07N 35°05' E 119°22'0 0.0
2014-Jul-22 10:31N 35°05' E 119°22'0 0.0
2014-Jul-22 09:31N 35°05' E 119°22'0 0.0
2014-Jul-22 08:25N 35°05' E 119°22'0 0.1
2014-Jul-22 07:33N 35°05' E 119°22'4 4.2
2014-Jul-22 06:30N 35°03' E 119°27'8 8.5
2014-Jul-22 05:34N 35°04' E 119°37'  

Dump ship's entire track history